sensor_id;sensor_type;location;lat;lon;timestamp;P1;durP1;ratioP1;P2;durP2;ratioP2
17606;SDS011;69222;52.242;20.980;2023-04-21T00:02:25;9.13;;;6.77;;
17606;SDS011;69222;52.242;20.980;2023-04-21T00:04:53;10.43;;;7.13;;
17606;SDS011;69222;52.242;20.980;2023-04-21T00:07:22;9.10;;;6.90;;
17606;SDS011;69222;52.242;20.980;2023-04-21T00:09:51;8.97;;;7.00;;
17606;SDS011;69222;52.242;20.980;2023-04-21T00:12:19;10.03;;;7.13;;
17606;SDS011;69222;52.242;20.980;2023-04-21T00:14:47;12.80;;;6.70;;
17606;SDS011;69222;52.242;20.980;2023-04-21T00:17:14;8.93;;;6.70;;
17606;SDS011;69222;52.242;20.980;2023-04-21T00:19:42;8.00;;;6.50;;
17606;SDS011;69222;52.242;20.980;2023-04-21T00:22:11;11.63;;;6.60;;
17606;SDS011;69222;52.242;20.980;2023-04-21T00:24:40;9.53;;;6.40;;
17606;SDS011;69222;52.242;20.980;2023-04-21T00:27:09;8.33;;;6.50;;
17606;SDS011;69222;52.242;20.980;2023-04-21T00:29:38;7.07;;;5.80;;
17606;SDS011;69222;52.242;20.980;2023-04-21T00:32:06;12.60;;;6.83;;
17606;SDS011;69222;52.242;20.980;2023-04-21T00:34:35;11.60;;;6.17;;
17606;SDS011;69222;52.242;20.980;2023-04-21T00:37:03;8.63;;;7.23;;
17606;SDS011;69222;52.242;20.980;2023-04-21T00:39:31;11.87;;;6.70;;
17606;SDS011;69222;52.242;20.980;2023-04-21T00:41:59;9.57;;;7.00;;
17606;SDS011;69222;52.242;20.980;2023-04-21T00:44:29;9.97;;;6.53;;
17606;SDS011;69222;52.242;20.980;2023-04-21T00:46:57;10.00;;;7.30;;
17606;SDS011;69222;52.242;20.980;2023-04-21T00:49:25;9.00;;;6.77;;
17606;SDS011;69222;52.242;20.980;2023-04-21T00:51:53;8.43;;;6.30;;
17606;SDS011;69222;52.242;20.980;2023-04-21T00:54:22;14.50;;;6.80;;
17606;SDS011;69222;52.242;20.980;2023-04-21T00:56:51;9.70;;;7.10;;
17606;SDS011;69222;52.242;20.980;2023-04-21T00:59:19;7.07;;;5.90;;
17606;SDS011;69222;52.242;20.980;2023-04-21T01:01:48;9.10;;;6.83;;
17606;SDS011;69222;52.242;20.980;2023-04-21T01:04:18;10.17;;;6.67;;
17606;SDS011;69222;52.242;20.980;2023-04-21T01:06:46;10.30;;;6.93;;
17606;SDS011;69222;52.242;20.980;2023-04-21T01:09:14;8.67;;;6.20;;
17606;SDS011;69222;52.242;20.980;2023-04-21T01:11:47;11.80;;;6.83;;
17606;SDS011;69222;52.242;20.980;2023-04-21T01:14:28;10.57;;;6.40;;
17606;SDS011;69222;52.242;20.980;2023-04-21T01:16:58;8.30;;;6.50;;
17606;SDS011;69222;52.242;20.980;2023-04-21T01:19:27;7.50;;;6.10;;
17606;SDS011;69222;52.242;20.980;2023-04-21T01:22:00;8.73;;;6.23;;
17606;SDS011;69222;52.242;20.980;2023-04-21T01:24:35;7.93;;;6.33;;
17606;SDS011;69222;52.242;20.980;2023-04-21T01:27:07;10.23;;;6.67;;
17606;SDS011;69222;52.242;20.980;2023-04-21T01:29:36;10.50;;;6.77;;
17606;SDS011;69222;52.242;20.980;2023-04-21T01:32:05;8.40;;;6.50;;
17606;SDS011;69222;52.242;20.980;2023-04-21T01:34:35;7.00;;;6.30;;
17606;SDS011;69222;52.242;20.980;2023-04-21T01:37:07;7.63;;;6.50;;
17606;SDS011;69222;52.242;20.980;2023-04-21T01:39:36;8.93;;;6.50;;
17606;SDS011;69222;52.242;20.980;2023-04-21T01:42:04;8.93;;;6.17;;
17606;SDS011;69222;52.242;20.980;2023-04-21T01:44:32;14.17;;;6.10;;
17606;SDS011;69222;52.242;20.980;2023-04-21T01:47:01;8.33;;;6.30;;
17606;SDS011;69222;52.242;20.980;2023-04-21T01:49:29;8.87;;;6.90;;
17606;SDS011;69222;52.242;20.980;2023-04-21T01:51:57;7.37;;;5.80;;
17606;SDS011;69222;52.242;20.980;2023-04-21T01:54:27;9.43;;;5.93;;
17606;SDS011;69222;52.242;20.980;2023-04-21T01:56:54;7.93;;;5.57;;
17606;SDS011;69222;52.242;20.980;2023-04-21T01:59:23;7.97;;;5.60;;
17606;SDS011;69222;52.242;20.980;2023-04-21T02:01:51;8.60;;;6.30;;
17606;SDS011;69222;52.242;20.980;2023-04-21T02:04:19;10.17;;;6.27;;
17606;SDS011;69222;52.242;20.980;2023-04-21T02:06:47;8.77;;;5.93;;
17606;SDS011;69222;52.242;20.980;2023-04-21T02:09:15;6.37;;;5.23;;
17606;SDS011;69222;52.242;20.980;2023-04-21T02:11:45;6.53;;;5.87;;
17606;SDS011;69222;52.242;20.980;2023-04-21T02:14:13;7.20;;;6.03;;
17606;SDS011;69222;52.242;20.980;2023-04-21T02:16:41;8.10;;;6.00;;
17606;SDS011;69222;52.242;20.980;2023-04-21T02:19:09;9.23;;;6.30;;
17606;SDS011;69222;52.242;20.980;2023-04-21T02:21:37;7.10;;;5.50;;
17606;SDS011;69222;52.242;20.980;2023-04-21T02:24:05;8.53;;;5.80;;
17606;SDS011;69222;52.242;20.980;2023-04-21T02:26:33;8.77;;;5.77;;
17606;SDS011;69222;52.242;20.980;2023-04-21T02:29:02;9.67;;;6.20;;
17606;SDS011;69222;52.242;20.980;2023-04-21T02:31:30;8.37;;;6.40;;
17606;SDS011;69222;52.242;20.980;2023-04-21T02:34:05;7.47;;;5.97;;
17606;SDS011;69222;52.242;20.980;2023-04-21T02:36:34;8.37;;;6.07;;
17606;SDS011;69222;52.242;20.980;2023-04-21T02:39:01;7.90;;;5.63;;
17606;SDS011;69222;52.242;20.980;2023-04-21T02:41:30;8.00;;;5.90;;
17606;SDS011;69222;52.242;20.980;2023-04-21T02:43:58;9.50;;;5.77;;
17606;SDS011;69222;52.242;20.980;2023-04-21T02:46:27;8.57;;;6.10;;
17606;SDS011;69222;52.242;20.980;2023-04-21T02:48:56;8.23;;;5.77;;
17606;SDS011;69222;52.242;20.980;2023-04-21T02:51:24;8.73;;;5.67;;
17606;SDS011;69222;52.242;20.980;2023-04-21T02:53:52;9.50;;;5.97;;
17606;SDS011;69222;52.242;20.980;2023-04-21T02:56:19;7.23;;;5.47;;
17606;SDS011;69222;52.242;20.980;2023-04-21T02:58:47;9.50;;;5.70;;
17606;SDS011;69222;52.242;20.980;2023-04-21T03:01:15;11.20;;;5.97;;
17606;SDS011;69222;52.242;20.980;2023-04-21T03:03:45;11.80;;;5.80;;
17606;SDS011;69222;52.242;20.980;2023-04-21T03:06:13;7.93;;;5.47;;
17606;SDS011;69222;52.242;20.980;2023-04-21T03:08:41;8.17;;;6.17;;
17606;SDS011;69222;52.242;20.980;2023-04-21T03:11:09;9.67;;;5.80;;
17606;SDS011;69222;52.242;20.980;2023-04-21T03:13:37;8.93;;;6.50;;
17606;SDS011;69222;52.242;20.980;2023-04-21T03:16:05;7.77;;;5.53;;
17606;SDS011;69222;52.242;20.980;2023-04-21T03:18:33;6.57;;;5.37;;
17606;SDS011;69222;52.242;20.980;2023-04-21T03:21:03;6.03;;;5.40;;
17606;SDS011;69222;52.242;20.980;2023-04-21T03:23:31;8.20;;;4.80;;
17606;SDS011;69222;52.242;20.980;2023-04-21T03:25:59;9.20;;;5.77;;
17606;SDS011;69222;52.242;20.980;2023-04-21T03:28:26;7.20;;;5.83;;
17606;SDS011;69222;52.242;20.980;2023-04-21T03:30:54;7.17;;;5.70;;
17606;SDS011;69222;52.242;20.980;2023-04-21T03:33:22;7.33;;;5.50;;
17606;SDS011;69222;52.242;20.980;2023-04-21T03:35:50;6.77;;;5.13;;
17606;SDS011;69222;52.242;20.980;2023-04-21T03:38:19;7.50;;;5.57;;
17606;SDS011;69222;52.242;20.980;2023-04-21T03:40:47;9.73;;;5.60;;
17606;SDS011;69222;52.242;20.980;2023-04-21T03:43:15;6.97;;;5.43;;
17606;SDS011;69222;52.242;20.980;2023-04-21T03:45:43;7.97;;;5.50;;
17606;SDS011;69222;52.242;20.980;2023-04-21T03:48:11;11.33;;;5.83;;
17606;SDS011;69222;52.242;20.980;2023-04-21T03:50:39;7.73;;;5.53;;
17606;SDS011;69222;52.242;20.980;2023-04-21T03:53:07;8.17;;;5.30;;
17606;SDS011;69222;52.242;20.980;2023-04-21T03:55:36;10.80;;;5.73;;
17606;SDS011;69222;52.242;20.980;2023-04-21T03:58:04;7.57;;;5.23;;
17606;SDS011;69222;52.242;20.980;2023-04-21T04:00:33;7.90;;;5.53;;
17606;SDS011;69222;52.242;20.980;2023-04-21T04:03:01;5.97;;;5.27;;
17606;SDS011;69222;52.242;20.980;2023-04-21T04:05:29;6.17;;;5.53;;
17606;SDS011;69222;52.242;20.980;2023-04-21T04:07:57;10.10;;;5.77;;
17606;SDS011;69222;52.242;20.980;2023-04-21T04:10:25;8.63;;;5.37;;
17606;SDS011;69222;52.242;20.980;2023-04-21T04:12:54;9.43;;;5.37;;
17606;SDS011;69222;52.242;20.980;2023-04-21T04:15:22;5.77;;;5.03;;
17606;SDS011;69222;52.242;20.980;2023-04-21T04:17:50;6.87;;;5.57;;
17606;SDS011;69222;52.242;20.980;2023-04-21T04:20:18;10.90;;;5.63;;
17606;SDS011;69222;52.242;20.980;2023-04-21T04:22:46;8.50;;;5.57;;
17606;SDS011;69222;52.242;20.980;2023-04-21T04:25:14;7.40;;;5.23;;
17606;SDS011;69222;52.242;20.980;2023-04-21T04:27:42;8.77;;;5.63;;
17606;SDS011;69222;52.242;20.980;2023-04-21T04:30:12;6.27;;;5.23;;
17606;SDS011;69222;52.242;20.980;2023-04-21T04:32:40;6.97;;;5.37;;
17606;SDS011;69222;52.242;20.980;2023-04-21T04:35:09;7.73;;;4.93;;
17606;SDS011;69222;52.242;20.980;2023-04-21T04:37:38;7.53;;;5.77;;
17606;SDS011;69222;52.242;20.980;2023-04-21T04:40:06;6.70;;;5.40;;
17606;SDS011;69222;52.242;20.980;2023-04-21T04:42:37;10.37;;;5.40;;
17606;SDS011;69222;52.242;20.980;2023-04-21T04:45:06;7.13;;;4.87;;
17606;SDS011;69222;52.242;20.980;2023-04-21T04:47:37;6.83;;;5.20;;
17606;SDS011;69222;52.242;20.980;2023-04-21T04:50:06;8.10;;;5.50;;
17606;SDS011;69222;52.242;20.980;2023-04-21T04:52:34;9.07;;;4.90;;
17606;SDS011;69222;52.242;20.980;2023-04-21T04:55:02;5.40;;;4.87;;
17606;SDS011;69222;52.242;20.980;2023-04-21T04:57:31;8.40;;;5.67;;
17606;SDS011;69222;52.242;20.980;2023-04-21T04:59:59;8.27;;;4.80;;
17606;SDS011;69222;52.242;20.980;2023-04-21T05:02:27;10.17;;;5.47;;
17606;SDS011;69222;52.242;20.980;2023-04-21T05:04:56;8.30;;;5.20;;
17606;SDS011;69222;52.242;20.980;2023-04-21T05:07:24;5.87;;;4.60;;
17606;SDS011;69222;52.242;20.980;2023-04-21T05:09:52;7.23;;;4.90;;
17606;SDS011;69222;52.242;20.980;2023-04-21T05:12:20;8.10;;;5.20;;
17606;SDS011;69222;52.242;20.980;2023-04-21T05:14:48;6.90;;;4.60;;
17606;SDS011;69222;52.242;20.980;2023-04-21T05:17:16;7.43;;;5.00;;
17606;SDS011;69222;52.242;20.980;2023-04-21T05:19:44;6.97;;;4.73;;
17606;SDS011;69222;52.242;20.980;2023-04-21T05:22:13;7.73;;;5.20;;
17606;SDS011;69222;52.242;20.980;2023-04-21T05:24:41;9.07;;;5.43;;
17606;SDS011;69222;52.242;20.980;2023-04-21T05:27:09;6.43;;;5.00;;
17606;SDS011;69222;52.242;20.980;2023-04-21T05:29:37;7.13;;;4.57;;
17606;SDS011;69222;52.242;20.980;2023-04-21T05:32:05;8.43;;;4.83;;
17606;SDS011;69222;52.242;20.980;2023-04-21T05:34:33;9.10;;;5.00;;
17606;SDS011;69222;52.242;20.980;2023-04-21T05:37:01;7.17;;;4.97;;
17606;SDS011;69222;52.242;20.980;2023-04-21T05:39:30;8.90;;;5.27;;
17606;SDS011;69222;52.242;20.980;2023-04-21T05:41:58;6.47;;;4.77;;
17606;SDS011;69222;52.242;20.980;2023-04-21T05:44:27;7.43;;;5.13;;
17606;SDS011;69222;52.242;20.980;2023-04-21T05:46:55;9.97;;;4.90;;
17606;SDS011;69222;52.242;20.980;2023-04-21T05:49:23;7.30;;;5.17;;
17606;SDS011;69222;52.242;20.980;2023-04-21T05:51:51;8.43;;;4.77;;
17606;SDS011;69222;52.242;20.980;2023-04-21T05:54:19;10.23;;;4.63;;
17606;SDS011;69222;52.242;20.980;2023-04-21T05:56:49;6.17;;;4.77;;
17606;SDS011;69222;52.242;20.980;2023-04-21T05:59:17;12.00;;;4.80;;
17606;SDS011;69222;52.242;20.980;2023-04-21T06:01:44;6.70;;;4.63;;
17606;SDS011;69222;52.242;20.980;2023-04-21T06:04:12;8.77;;;4.57;;
17606;SDS011;69222;52.242;20.980;2023-04-21T06:06:41;7.40;;;5.15;;
17606;SDS011;69222;52.242;20.980;2023-04-21T06:09:09;6.85;;;4.68;;
17606;SDS011;69222;52.242;20.980;2023-04-21T06:11:37;8.77;;;4.65;;
17606;SDS011;69222;52.242;20.980;2023-04-21T06:14:07;5.40;;;4.63;;
17606;SDS011;69222;52.242;20.980;2023-04-21T06:16:35;5.70;;;4.38;;
17606;SDS011;69222;52.242;20.980;2023-04-21T06:19:03;8.40;;;4.35;;
17606;SDS011;69222;52.242;20.980;2023-04-21T06:21:31;6.15;;;4.20;;
17606;SDS011;69222;52.242;20.980;2023-04-21T06:23:59;6.40;;;4.60;;
17606;SDS011;69222;52.242;20.980;2023-04-21T06:26:27;6.38;;;4.35;;
17606;SDS011;69222;52.242;20.980;2023-04-21T06:28:56;8.15;;;4.70;;
17606;SDS011;69222;52.242;20.980;2023-04-21T06:31:26;7.25;;;3.47;;
17606;SDS011;69222;52.242;20.980;2023-04-21T06:33:54;4.80;;;3.75;;
17606;SDS011;69222;52.242;20.980;2023-04-21T06:36:21;3.92;;;3.53;;
17606;SDS011;69222;52.242;20.980;2023-04-21T06:38:49;13.57;;;4.43;;
17606;SDS011;69222;52.242;20.980;2023-04-21T06:41:17;10.23;;;4.05;;
17606;SDS011;69222;52.242;20.980;2023-04-21T06:43:48;5.00;;;3.67;;
17606;SDS011;69222;52.242;20.980;2023-04-21T06:46:15;6.47;;;3.67;;
17606;SDS011;69222;52.242;20.980;2023-04-21T06:48:45;4.13;;;3.47;;
17606;SDS011;69222;52.242;20.980;2023-04-21T06:51:13;3.60;;;2.97;;
17606;SDS011;69222;52.242;20.980;2023-04-21T06:53:41;4.57;;;3.58;;
17606;SDS011;69222;52.242;20.980;2023-04-21T06:56:09;4.18;;;3.13;;
17606;SDS011;69222;52.242;20.980;2023-04-21T06:58:37;5.07;;;3.30;;
17606;SDS011;69222;52.242;20.980;2023-04-21T07:01:05;6.07;;;3.47;;
17606;SDS011;69222;52.242;20.980;2023-04-21T07:03:33;5.93;;;3.08;;
17606;SDS011;69222;52.242;20.980;2023-04-21T07:06:02;7.28;;;3.40;;
17606;SDS011;69222;52.242;20.980;2023-04-21T07:08:30;6.22;;;3.10;;
17606;SDS011;69222;52.242;20.980;2023-04-21T07:10:58;6.60;;;3.33;;
17606;SDS011;69222;52.242;20.980;2023-04-21T07:13:27;9.48;;;3.85;;
17606;SDS011;69222;52.242;20.980;2023-04-21T07:15:55;6.30;;;4.00;;
17606;SDS011;69222;52.242;20.980;2023-04-21T07:18:23;5.97;;;4.60;;
17606;SDS011;69222;52.242;20.980;2023-04-21T07:20:51;5.30;;;3.30;;
17606;SDS011;69222;52.242;20.980;2023-04-21T07:23:20;4.95;;;3.35;;
17606;SDS011;69222;52.242;20.980;2023-04-21T07:25:48;4.82;;;2.83;;
17606;SDS011;69222;52.242;20.980;2023-04-21T07:28:17;3.58;;;2.85;;
17606;SDS011;69222;52.242;20.980;2023-04-21T07:30:44;4.25;;;3.10;;
17606;SDS011;69222;52.242;20.980;2023-04-21T07:33:12;6.30;;;4.10;;
17606;SDS011;69222;52.242;20.980;2023-04-21T07:35:40;6.85;;;3.13;;
17606;SDS011;69222;52.242;20.980;2023-04-21T07:38:08;5.10;;;2.80;;
17606;SDS011;69222;52.242;20.980;2023-04-21T07:40:38;7.97;;;2.88;;
17606;SDS011;69222;52.242;20.980;2023-04-21T07:43:06;5.15;;;2.78;;
17606;SDS011;69222;52.242;20.980;2023-04-21T07:45:33;4.18;;;3.13;;
17606;SDS011;69222;52.242;20.980;2023-04-21T07:48:02;4.28;;;3.08;;
17606;SDS011;69222;52.242;20.980;2023-04-21T07:50:31;4.90;;;2.97;;
17606;SDS011;69222;52.242;20.980;2023-04-21T07:53:00;4.20;;;2.50;;
17606;SDS011;69222;52.242;20.980;2023-04-21T07:55:28;4.90;;;3.22;;
17606;SDS011;69222;52.242;20.980;2023-04-21T07:57:58;4.95;;;2.75;;
17606;SDS011;69222;52.242;20.980;2023-04-21T08:00:26;3.33;;;2.53;;
17606;SDS011;69222;52.242;20.980;2023-04-21T08:02:53;4.32;;;2.97;;
17606;SDS011;69222;52.242;20.980;2023-04-21T08:05:22;6.68;;;2.67;;
17606;SDS011;69222;52.242;20.980;2023-04-21T08:07:55;5.55;;;2.90;;
17606;SDS011;69222;52.242;20.980;2023-04-21T08:10:23;2.60;;;2.20;;
17606;SDS011;69222;52.242;20.980;2023-04-21T08:12:51;2.58;;;2.38;;
17606;SDS011;69222;52.242;20.980;2023-04-21T08:15:21;7.25;;;2.55;;
17606;SDS011;69222;52.242;20.980;2023-04-21T08:17:49;6.95;;;2.92;;
17606;SDS011;69222;52.242;20.980;2023-04-21T08:20:17;7.05;;;2.65;;
17606;SDS011;69222;52.242;20.980;2023-04-21T08:22:45;5.00;;;2.55;;
17606;SDS011;69222;52.242;20.980;2023-04-21T08:25:13;3.42;;;2.28;;
17606;SDS011;69222;52.242;20.980;2023-04-21T08:27:42;3.38;;;2.53;;
17606;SDS011;69222;52.242;20.980;2023-04-21T08:30:10;2.17;;;1.95;;
17606;SDS011;69222;52.242;20.980;2023-04-21T08:32:40;2.47;;;2.20;;
17606;SDS011;69222;52.242;20.980;2023-04-21T08:35:08;2.58;;;2.38;;
17606;SDS011;69222;52.242;20.980;2023-04-21T08:37:38;3.80;;;2.00;;
17606;SDS011;69222;52.242;20.980;2023-04-21T08:40:07;2.45;;;2.25;;
17606;SDS011;69222;52.242;20.980;2023-04-21T08:42:36;2.72;;;2.50;;
17606;SDS011;69222;52.242;20.980;2023-04-21T08:45:05;2.13;;;1.98;;
17606;SDS011;69222;52.242;20.980;2023-04-21T08:47:34;3.70;;;2.20;;
17606;SDS011;69222;52.242;20.980;2023-04-21T08:50:11;2.55;;;2.17;;
17606;SDS011;69222;52.242;20.980;2023-04-21T08:52:40;2.45;;;2.20;;
17606;SDS011;69222;52.242;20.980;2023-04-21T08:55:08;5.53;;;2.50;;
17606;SDS011;69222;52.242;20.980;2023-04-21T08:57:38;4.60;;;2.40;;
17606;SDS011;69222;52.242;20.980;2023-04-21T09:00:06;4.63;;;3.28;;
17606;SDS011;69222;52.242;20.980;2023-04-21T09:05:29;2.40;;;2.05;;
17606;SDS011;69222;52.242;20.980;2023-04-21T09:08:08;2.80;;;1.98;;
17606;SDS011;69222;52.242;20.980;2023-04-21T09:10:43;2.35;;;1.88;;
17606;SDS011;69222;52.242;20.980;2023-04-21T09:13:11;3.70;;;1.90;;
17606;SDS011;69222;52.242;20.980;2023-04-21T09:15:40;2.90;;;1.75;;
17606;SDS011;69222;52.242;20.980;2023-04-21T09:18:09;2.63;;;2.00;;
17606;SDS011;69222;52.242;20.980;2023-04-21T09:20:43;2.97;;;1.80;;
17606;SDS011;69222;52.242;20.980;2023-04-21T09:23:12;2.67;;;2.10;;
17606;SDS011;69222;52.242;20.980;2023-04-21T09:25:41;3.70;;;2.08;;
17606;SDS011;69222;52.242;20.980;2023-04-21T09:28:10;2.20;;;2.03;;
17606;SDS011;69222;52.242;20.980;2023-04-21T09:30:40;3.47;;;2.40;;
17606;SDS011;69222;52.242;20.980;2023-04-21T09:33:14;3.85;;;2.08;;
17606;SDS011;69222;52.242;20.980;2023-04-21T09:36:00;2.60;;;1.95;;
17606;SDS011;69222;52.242;20.980;2023-04-21T09:38:29;3.97;;;2.15;;
17606;SDS011;69222;52.242;20.980;2023-04-21T09:40:57;3.05;;;2.05;;
17606;SDS011;69222;52.242;20.980;2023-04-21T09:43:25;3.67;;;2.10;;
17606;SDS011;69222;52.242;20.980;2023-04-21T09:45:53;2.17;;;1.98;;
17606;SDS011;69222;52.242;20.980;2023-04-21T09:48:23;3.25;;;2.08;;
17606;SDS011;69222;52.242;20.980;2023-04-21T09:50:53;3.67;;;1.92;;
17606;SDS011;69222;52.242;20.980;2023-04-21T09:53:28;2.00;;;1.88;;
17606;SDS011;69222;52.242;20.980;2023-04-21T09:56:01;2.92;;;2.15;;
17606;SDS011;69222;52.242;20.980;2023-04-21T09:58:30;2.60;;;2.05;;
17606;SDS011;69222;52.242;20.980;2023-04-21T10:01:06;3.20;;;1.88;;
17606;SDS011;69222;52.242;20.980;2023-04-21T10:03:36;2.50;;;2.30;;
17606;SDS011;69222;52.242;20.980;2023-04-21T10:06:06;2.65;;;2.30;;
17606;SDS011;69222;52.242;20.980;2023-04-21T10:08:36;2.92;;;2.10;;
17606;SDS011;69222;52.242;20.980;2023-04-21T10:11:04;2.70;;;2.05;;
17606;SDS011;69222;52.242;20.980;2023-04-21T10:13:34;3.05;;;2.35;;
17606;SDS011;69222;52.242;20.980;2023-04-21T10:16:03;2.45;;;2.20;;
17606;SDS011;69222;52.242;20.980;2023-04-21T10:18:36;3.00;;;2.20;;
17606;SDS011;69222;52.242;20.980;2023-04-21T10:21:06;2.22;;;1.90;;
17606;SDS011;69222;52.242;20.980;2023-04-21T10:23:37;4.40;;;2.13;;
17606;SDS011;69222;52.242;20.980;2023-04-21T10:26:09;3.83;;;1.92;;
17606;SDS011;69222;52.242;20.980;2023-04-21T10:28:39;2.20;;;2.00;;
17606;SDS011;69222;52.242;20.980;2023-04-21T10:31:28;2.30;;;2.00;;
17606;SDS011;69222;52.242;20.980;2023-04-21T10:34:13;2.08;;;1.90;;
17606;SDS011;69222;52.242;20.980;2023-04-21T10:36:42;3.35;;;2.30;;
17606;SDS011;69222;52.242;20.980;2023-04-21T10:39:27;10.45;;;2.30;;
17606;SDS011;69222;52.242;20.980;2023-04-21T10:44:50;2.22;;;1.90;;
17606;SDS011;69222;52.242;20.980;2023-04-21T10:47:25;2.30;;;2.10;;
17606;SDS011;69222;52.242;20.980;2023-04-21T10:49:54;3.30;;;2.22;;
17606;SDS011;69222;52.242;20.980;2023-04-21T10:52:29;4.60;;;1.95;;
17606;SDS011;69222;52.242;20.980;2023-04-21T10:55:07;5.28;;;2.58;;
17606;SDS011;69222;52.242;20.980;2023-04-21T10:57:40;3.15;;;2.13;;
17606;SDS011;69222;52.242;20.980;2023-04-21T11:00:10;2.35;;;2.15;;
17606;SDS011;69222;52.242;20.980;2023-04-21T11:02:41;2.40;;;2.20;;
17606;SDS011;69222;52.242;20.980;2023-04-21T11:05:10;2.45;;;2.00;;
17606;SDS011;69222;52.242;20.980;2023-04-21T11:07:39;3.33;;;2.28;;
17606;SDS011;69222;52.242;20.980;2023-04-21T11:10:09;2.47;;;2.08;;
17606;SDS011;69222;52.242;20.980;2023-04-21T11:12:38;3.50;;;2.20;;
17606;SDS011;69222;52.242;20.980;2023-04-21T11:15:07;5.28;;;2.40;;
17606;SDS011;69222;52.242;20.980;2023-04-21T11:17:37;2.55;;;2.33;;
17606;SDS011;69222;52.242;20.980;2023-04-21T11:20:08;2.55;;;2.35;;
17606;SDS011;69222;52.242;20.980;2023-04-21T11:22:37;2.40;;;2.10;;
17606;SDS011;69222;52.242;20.980;2023-04-21T11:25:05;2.83;;;2.53;;
17606;SDS011;69222;52.242;20.980;2023-04-21T11:27:52;3.53;;;2.22;;
17606;SDS011;69222;52.242;20.980;2023-04-21T11:30:21;4.07;;;2.00;;
17606;SDS011;69222;52.242;20.980;2023-04-21T11:32:59;3.13;;;2.30;;
17606;SDS011;69222;52.242;20.980;2023-04-21T11:35:27;3.03;;;1.98;;
17606;SDS011;69222;52.242;20.980;2023-04-21T11:37:56;3.58;;;2.15;;
17606;SDS011;69222;52.242;20.980;2023-04-21T11:40:25;4.20;;;2.70;;
17606;SDS011;69222;52.242;20.980;2023-04-21T11:42:53;2.53;;;2.10;;
17606;SDS011;69222;52.242;20.980;2023-04-21T11:45:21;2.67;;;2.33;;
17606;SDS011;69222;52.242;20.980;2023-04-21T11:47:49;2.38;;;2.17;;
17606;SDS011;69222;52.242;20.980;2023-04-21T11:50:28;4.32;;;2.10;;
17606;SDS011;69222;52.242;20.980;2023-04-21T11:52:57;3.25;;;2.15;;
17606;SDS011;69222;52.242;20.980;2023-04-21T11:55:27;2.78;;;2.55;;
17606;SDS011;69222;52.242;20.980;2023-04-21T11:57:55;6.43;;;2.60;;
17606;SDS011;69222;52.242;20.980;2023-04-21T12:00:24;2.67;;;2.03;;
17606;SDS011;69222;52.242;20.980;2023-04-21T12:02:57;3.25;;;2.40;;
17606;SDS011;69222;52.242;20.980;2023-04-21T12:05:32;3.15;;;2.20;;
17606;SDS011;69222;52.242;20.980;2023-04-21T12:08:01;2.78;;;1.95;;
17606;SDS011;69222;52.242;20.980;2023-04-21T12:10:33;2.95;;;2.00;;
17606;SDS011;69222;52.242;20.980;2023-04-21T12:13:01;4.35;;;2.15;;
17606;SDS011;69222;52.242;20.980;2023-04-21T12:15:29;3.70;;;1.90;;
17606;SDS011;69222;52.242;20.980;2023-04-21T12:17:57;3.08;;;2.33;;
17606;SDS011;69222;52.242;20.980;2023-04-21T12:20:27;3.50;;;2.10;;
17606;SDS011;69222;52.242;20.980;2023-04-21T12:22:56;3.95;;;2.17;;
17606;SDS011;69222;52.242;20.980;2023-04-21T12:25:24;5.40;;;2.42;;
17606;SDS011;69222;52.242;20.980;2023-04-21T12:27:56;2.33;;;1.90;;
17606;SDS011;69222;52.242;20.980;2023-04-21T12:30:25;2.20;;;2.00;;
17606;SDS011;69222;52.242;20.980;2023-04-21T12:32:53;4.13;;;2.30;;
17606;SDS011;69222;52.242;20.980;2023-04-21T12:35:21;4.28;;;1.92;;
17606;SDS011;69222;52.242;20.980;2023-04-21T12:37:50;2.55;;;2.03;;
17606;SDS011;69222;52.242;20.980;2023-04-21T12:40:18;3.10;;;2.58;;
17606;SDS011;69222;52.242;20.980;2023-04-21T12:42:46;2.20;;;1.98;;
17606;SDS011;69222;52.242;20.980;2023-04-21T12:45:15;6.13;;;1.92;;
17606;SDS011;69222;52.242;20.980;2023-04-21T12:47:43;4.80;;;2.20;;
17606;SDS011;69222;52.242;20.980;2023-04-21T12:50:12;2.50;;;1.90;;
17606;SDS011;69222;52.242;20.980;2023-04-21T12:52:40;3.72;;;1.95;;
17606;SDS011;69222;52.242;20.980;2023-04-21T12:55:08;3.05;;;2.10;;
17606;SDS011;69222;52.242;20.980;2023-04-21T12:57:38;1.90;;;1.70;;
17606;SDS011;69222;52.242;20.980;2023-04-21T13:00:07;4.72;;;1.95;;
17606;SDS011;69222;52.242;20.980;2023-04-21T13:02:39;2.58;;;2.22;;
17606;SDS011;69222;52.242;20.980;2023-04-21T13:05:07;2.70;;;2.17;;
17606;SDS011;69222;52.242;20.980;2023-04-21T13:07:37;3.22;;;1.65;;
17606;SDS011;69222;52.242;20.980;2023-04-21T13:10:05;6.15;;;2.38;;
17606;SDS011;69222;52.242;20.980;2023-04-21T13:12:34;2.45;;;1.88;;
17606;SDS011;69222;52.242;20.980;2023-04-21T13:15:02;4.35;;;2.20;;
17606;SDS011;69222;52.242;20.980;2023-04-21T13:17:31;4.93;;;1.98;;
17606;SDS011;69222;52.242;20.980;2023-04-21T13:20:00;6.38;;;2.40;;
17606;SDS011;69222;52.242;20.980;2023-04-21T13:22:30;6.03;;;1.80;;
17606;SDS011;69222;52.242;20.980;2023-04-21T13:24:58;3.75;;;2.08;;
17606;SDS011;69222;52.242;20.980;2023-04-21T13:27:26;2.50;;;2.17;;
17606;SDS011;69222;52.242;20.980;2023-04-21T13:29:54;2.88;;;2.25;;
17606;SDS011;69222;52.242;20.980;2023-04-21T13:32:22;3.55;;;2.53;;
17606;SDS011;69222;52.242;20.980;2023-04-21T13:34:50;3.85;;;2.13;;
17606;SDS011;69222;52.242;20.980;2023-04-21T13:37:20;2.60;;;2.22;;
17606;SDS011;69222;52.242;20.980;2023-04-21T13:39:48;5.80;;;2.40;;
17606;SDS011;69222;52.242;20.980;2023-04-21T13:42:16;4.15;;;2.00;;
17606;SDS011;69222;52.242;20.980;2023-04-21T13:44:44;3.33;;;1.83;;
17606;SDS011;69222;52.242;20.980;2023-04-21T13:47:12;3.70;;;1.85;;
17606;SDS011;69222;52.242;20.980;2023-04-21T13:49:40;2.28;;;1.85;;
17606;SDS011;69222;52.242;20.980;2023-04-21T13:52:08;6.07;;;2.13;;
17606;SDS011;69222;52.242;20.980;2023-04-21T13:54:38;2.20;;;1.80;;
17606;SDS011;69222;52.242;20.980;2023-04-21T13:57:06;2.13;;;1.92;;
17606;SDS011;69222;52.242;20.980;2023-04-21T13:59:34;3.33;;;2.10;;
17606;SDS011;69222;52.242;20.980;2023-04-21T14:02:02;3.38;;;1.80;;
17606;SDS011;69222;52.242;20.980;2023-04-21T14:04:30;2.33;;;1.92;;
17606;SDS011;69222;52.242;20.980;2023-04-21T14:06:58;2.85;;;2.03;;
17606;SDS011;69222;52.242;20.980;2023-04-21T14:09:26;3.72;;;2.00;;
17606;SDS011;69222;52.242;20.980;2023-04-21T14:11:56;4.07;;;2.17;;
17606;SDS011;69222;52.242;20.980;2023-04-21T14:14:24;5.15;;;2.08;;
17606;SDS011;69222;52.242;20.980;2023-04-21T14:17:03;3.47;;;2.10;;
17606;SDS011;69222;52.242;20.980;2023-04-21T14:19:31;2.38;;;1.98;;
17606;SDS011;69222;52.242;20.980;2023-04-21T14:22:01;2.33;;;2.08;;
17606;SDS011;69222;52.242;20.980;2023-04-21T14:24:29;3.08;;;1.90;;
17606;SDS011;69222;52.242;20.980;2023-04-21T14:26:59;2.30;;;1.80;;
17606;SDS011;69222;52.242;20.980;2023-04-21T14:29:27;4.68;;;2.30;;
17606;SDS011;69222;52.242;20.980;2023-04-21T14:31:55;2.83;;;1.95;;
17606;SDS011;69222;52.242;20.980;2023-04-21T14:34:24;6.20;;;2.88;;
17606;SDS011;69222;52.242;20.980;2023-04-21T14:36:52;2.72;;;2.15;;
17606;SDS011;69222;52.242;20.980;2023-04-21T14:39:21;3.35;;;1.90;;
17606;SDS011;69222;52.242;20.980;2023-04-21T14:41:49;4.53;;;2.30;;
17606;SDS011;69222;52.242;20.980;2023-04-21T14:44:18;7.63;;;4.35;;
17606;SDS011;69222;52.242;20.980;2023-04-21T14:46:46;4.35;;;1.92;;
17606;SDS011;69222;52.242;20.980;2023-04-21T14:49:31;3.45;;;1.95;;
17606;SDS011;69222;52.242;20.980;2023-04-21T14:51:59;2.97;;;2.15;;